sensor_id;sensor_type;location;lat;lon;timestamp;pressure;altitude;pressure_sealevel;temperature;humidity
35489;BME280;21602;55.670;37.578;2023-03-22T00:01:11;98596.72;;;5.62;93.80
35489;BME280;21602;55.670;37.578;2023-03-22T00:03:37;98597.16;;;5.59;94.00
35489;BME280;21602;55.670;37.578;2023-03-22T00:06:04;98608.91;;;5.63;93.64
35489;BME280;21602;55.670;37.578;2023-03-22T00:08:30;98607.38;;;5.56;94.37
35489;BME280;21602;55.670;37.578;2023-03-22T00:10:55;98600.53;;;5.48;94.62
35489;BME280;21602;55.670;37.578;2023-03-22T00:13:21;98606.84;;;5.47;94.74
35489;BME280;21602;55.670;37.578;2023-03-22T00:15:47;98607.88;;;5.46;94.42
35489;BME280;21602;55.670;37.578;2023-03-22T00:18:14;98599.34;;;5.44;95.21
35489;BME280;21602;55.670;37.578;2023-03-22T00:20:54;98607.44;;;5.49;94.88
35489;BME280;21602;55.670;37.578;2023-03-22T00:23:20;98607.44;;;5.49;94.78
35489;BME280;21602;55.670;37.578;2023-03-22T00:25:47;98604.13;;;5.54;94.81
35489;BME280;21602;55.670;37.578;2023-03-22T00:28:14;98605.97;;;5.53;95.25
35489;BME280;21602;55.670;37.578;2023-03-22T00:30:41;98609.44;;;5.54;94.42
35489;BME280;21602;55.670;37.578;2023-03-22T00:33:08;98615.53;;;5.54;94.83
35489;BME280;21602;55.670;37.578;2023-03-22T00:35:34;98611.84;;;5.55;94.64
35489;BME280;21602;55.670;37.578;2023-03-22T00:38:00;98615.91;;;5.58;94.70
35489;BME280;21602;55.670;37.578;2023-03-22T00:40:31;98625.25;;;5.60;94.70
35489;BME280;21602;55.670;37.578;2023-03-22T00:43:00;98625.69;;;5.57;94.32
35489;BME280;21602;55.670;37.578;2023-03-22T00:45:27;98625.31;;;5.54;94.34
35489;BME280;21602;55.670;37.578;2023-03-22T00:47:53;98621.47;;;5.50;94.81
35489;BME280;21602;55.670;37.578;2023-03-22T00:50:19;98629.81;;;5.53;94.82
35489;BME280;21602;55.670;37.578;2023-03-22T00:52:45;98631.88;;;5.51;94.48
35489;BME280;21602;55.670;37.578;2023-03-22T00:55:13;98627.81;;;5.49;94.56
35489;BME280;21602;55.670;37.578;2023-03-22T00:57:39;98633.97;;;5.43;94.93
35489;BME280;21602;55.670;37.578;2023-03-22T01:00:05;98641.13;;;5.42;95.41
35489;BME280;21602;55.670;37.578;2023-03-22T01:02:35;98638.81;;;5.46;94.92
35489;BME280;21602;55.670;37.578;2023-03-22T01:05:01;98638.00;;;5.45;95.39
35489;BME280;21602;55.670;37.578;2023-03-22T01:07:30;98646.75;;;5.46;95.06
35489;BME280;21602;55.670;37.578;2023-03-22T01:09:55;98644.34;;;5.44;95.49
35489;BME280;21602;55.670;37.578;2023-03-22T01:12:22;98653.91;;;5.45;95.69
35489;BME280;21602;55.670;37.578;2023-03-22T01:14:48;98646.56;;;5.47;95.53
35489;BME280;21602;55.670;37.578;2023-03-22T01:17:13;98654.66;;;5.52;95.70
35489;BME280;21602;55.670;37.578;2023-03-22T01:19:40;98661.16;;;5.56;95.70
35489;BME280;21602;55.670;37.578;2023-03-22T01:22:06;98649.91;;;5.61;95.61
35489;BME280;21602;55.670;37.578;2023-03-22T01:24:33;98658.66;;;5.61;95.84
35489;BME280;21602;55.670;37.578;2023-03-22T01:26:59;98665.13;;;5.65;95.69
35489;BME280;21602;55.670;37.578;2023-03-22T01:29:25;98668.38;;;5.68;95.47
35489;BME280;21602;55.670;37.578;2023-03-22T01:31:51;98663.72;;;5.63;95.58
35489;BME280;21602;55.670;37.578;2023-03-22T01:34:18;98672.47;;;5.63;95.64
35489;BME280;21602;55.670;37.578;2023-03-22T01:36:44;98667.63;;;5.60;95.38
35489;BME280;21602;55.670;37.578;2023-03-22T01:39:10;98677.38;;;5.60;95.66
35489;BME280;21602;55.670;37.578;2023-03-22T01:41:37;98678.66;;;5.57;95.19
35489;BME280;21602;55.670;37.578;2023-03-22T01:44:20;98686.66;;;5.51;95.42
35489;BME280;21602;55.670;37.578;2023-03-22T01:46:48;98690.13;;;5.51;95.92
35489;BME280;21602;55.670;37.578;2023-03-22T01:51:42;98697.06;;;5.46;95.82
35489;BME280;21602;55.670;37.578;2023-03-22T01:54:29;98688.00;;;5.35;96.30
35489;BME280;21602;55.670;37.578;2023-03-22T01:57:01;98700.84;;;5.31;96.19
35489;BME280;21602;55.670;37.578;2023-03-22T01:59:35;98692.69;;;5.33;96.32
35489;BME280;21602;55.670;37.578;2023-03-22T02:02:20;98699.38;;;5.35;96.12
35489;BME280;21602;55.670;37.578;2023-03-22T02:04:54;98703.88;;;5.35;95.91
35489;BME280;21602;55.670;37.578;2023-03-22T02:07:24;98695.94;;;5.35;95.97
35489;BME280;21602;55.670;37.578;2023-03-22T02:09:54;98699.59;;;5.34;95.94
35489;BME280;21602;55.670;37.578;2023-03-22T02:15:10;98707.38;;;5.29;95.88
35489;BME280;21602;55.670;37.578;2023-03-22T02:29:38;98722.22;;;5.30;95.31
35489;BME280;21602;55.670;37.578;2023-03-22T02:32:30;98715.53;;;5.27;95.69
35489;BME280;21602;55.670;37.578;2023-03-22T02:40:49;98728.13;;;5.32;95.38
35489;BME280;21602;55.670;37.578;2023-03-22T02:43:29;98729.75;;;5.33;95.40
35489;BME280;21602;55.670;37.578;2023-03-22T02:49:05;98738.28;;;5.35;95.67
35489;BME280;21602;55.670;37.578;2023-03-22T02:51:40;98740.16;;;5.28;95.92
35489;BME280;21602;55.670;37.578;2023-03-22T02:57:23;98747.72;;;5.24;96.51
35489;BME280;21602;55.670;37.578;2023-03-22T02:59:55;98751.00;;;5.20;96.86
35489;BME280;21602;55.670;37.578;2023-03-22T03:02:25;98753.06;;;5.18;97.06
35489;BME280;21602;55.670;37.578;2023-03-22T03:04:55;98753.91;;;5.11;98.02
35489;BME280;21602;55.670;37.578;2023-03-22T03:07:26;98752.28;;;5.10;98.21
35489;BME280;21602;55.670;37.578;2023-03-22T03:09:52;98751.69;;;5.08;98.21
35489;BME280;21602;55.670;37.578;2023-03-22T03:12:20;98762.09;;;5.03;97.91
35489;BME280;21602;55.670;37.578;2023-03-22T03:14:51;98761.06;;;5.04;98.74
35489;BME280;21602;55.670;37.578;2023-03-22T03:20:20;98765.69;;;5.16;99.40
35489;BME280;21602;55.670;37.578;2023-03-22T03:26:01;98774.59;;;5.21;98.10
35489;BME280;21602;55.670;37.578;2023-03-22T03:31:22;98772.75;;;5.22;97.43
35489;BME280;21602;55.670;37.578;2023-03-22T03:40:28;98789.09;;;5.12;96.80
35489;BME280;21602;55.670;37.578;2023-03-22T03:43:01;98789.91;;;5.12;97.10
35489;BME280;21602;55.670;37.578;2023-03-22T03:45:33;98794.84;;;5.09;96.40
35489;BME280;21602;55.670;37.578;2023-03-22T03:48:03;98792.56;;;5.12;96.67
35489;BME280;21602;55.670;37.578;2023-03-22T03:50:31;98798.06;;;5.18;96.40
35489;BME280;21602;55.670;37.578;2023-03-22T03:52:57;98803.13;;;5.19;95.98
35489;BME280;21602;55.670;37.578;2023-03-22T03:55:23;98799.44;;;5.20;96.06
35489;BME280;21602;55.670;37.578;2023-03-22T03:57:49;98808.81;;;5.23;96.19
35489;BME280;21602;55.670;37.578;2023-03-22T04:00:16;98812.44;;;5.22;95.67
35489;BME280;21602;55.670;37.578;2023-03-22T04:03:00;98812.72;;;5.13;95.46
35489;BME280;21602;55.670;37.578;2023-03-22T04:05:45;98808.88;;;5.09;95.79
35489;BME280;21602;55.670;37.578;2023-03-22T04:08:14;98811.47;;;5.16;95.69
35489;BME280;21602;55.670;37.578;2023-03-22T04:10:40;98816.13;;;5.21;95.73
35489;BME280;21602;55.670;37.578;2023-03-22T04:13:06;98820.56;;;5.27;95.40
35489;BME280;21602;55.670;37.578;2023-03-22T04:15:32;98831.94;;;5.34;95.42
35489;BME280;21602;55.670;37.578;2023-03-22T04:18:01;98829.25;;;5.40;95.32
35489;BME280;21602;55.670;37.578;2023-03-22T04:20:31;98821.47;;;5.46;95.28
35489;BME280;21602;55.670;37.578;2023-03-22T04:22:57;98829.47;;;5.39;94.83
35489;BME280;21602;55.670;37.578;2023-03-22T04:25:23;98838.84;;;5.35;95.12
35489;BME280;21602;55.670;37.578;2023-03-22T04:28:03;98832.75;;;5.34;95.24
35489;BME280;21602;55.670;37.578;2023-03-22T04:30:32;98831.53;;;5.37;95.30
35489;BME280;21602;55.670;37.578;2023-03-22T04:33:19;98837.63;;;5.37;95.27
35489;BME280;21602;55.670;37.578;2023-03-22T04:36:23;98839.03;;;5.40;95.04
35489;BME280;21602;55.670;37.578;2023-03-22T04:39:10;98846.16;;;5.39;94.86
35489;BME280;21602;55.670;37.578;2023-03-22T04:41:38;98844.94;;;5.42;95.00
35489;BME280;21602;55.670;37.578;2023-03-22T04:44:04;98855.94;;;5.39;94.69
35489;BME280;21602;55.670;37.578;2023-03-22T04:46:34;98855.53;;;5.35;94.47
35489;BME280;21602;55.670;37.578;2023-03-22T04:49:05;98864.13;;;5.31;94.00
35489;BME280;21602;55.670;37.578;2023-03-22T04:51:34;98858.66;;;5.26;94.15
35489;BME280;21602;55.670;37.578;2023-03-22T04:54:21;98866.63;;;5.19;93.49
35489;BME280;21602;55.670;37.578;2023-03-22T04:56:49;98866.63;;;5.19;93.69
35489;BME280;21602;55.670;37.578;2023-03-22T04:59:17;98870.72;;;5.15;93.60
35489;BME280;21602;55.670;37.578;2023-03-22T05:01:46;98885.78;;;5.14;93.15
35489;BME280;21602;55.670;37.578;2023-03-22T05:04:17;98870.75;;;5.08;93.01
35489;BME280;21602;55.670;37.578;2023-03-22T05:06:44;98867.31;;;5.01;93.43
35489;BME280;21602;55.670;37.578;2023-03-22T05:09:18;98880.75;;;4.93;93.69
35489;BME280;21602;55.670;37.578;2023-03-22T05:11:46;98884.22;;;4.87;93.83
35489;BME280;21602;55.670;37.578;2023-03-22T05:14:35;98874.09;;;4.77;93.82
35489;BME280;21602;55.670;37.578;2023-03-22T05:17:01;98884.44;;;4.79;93.83
35489;BME280;21602;55.670;37.578;2023-03-22T05:19:32;98890.78;;;4.84;93.83
35489;BME280;21602;55.670;37.578;2023-03-22T05:21:59;98891.56;;;4.85;93.64
35489;BME280;21602;55.670;37.578;2023-03-22T05:24:39;98894.22;;;4.85;93.38
35489;BME280;21602;55.670;37.578;2023-03-22T05:27:08;98895.25;;;4.77;93.48
35489;BME280;21602;55.670;37.578;2023-03-22T05:29:36;98895.88;;;4.73;93.72
35489;BME280;21602;55.670;37.578;2023-03-22T05:32:16;98903.00;;;4.66;94.10
35489;BME280;21602;55.670;37.578;2023-03-22T05:34:45;98903.81;;;4.66;94.19
35489;BME280;21602;55.670;37.578;2023-03-22T05:37:31;98915.00;;;4.68;94.18
35489;BME280;21602;55.670;37.578;2023-03-22T05:39:58;98920.69;;;4.72;93.54
35489;BME280;21602;55.670;37.578;2023-03-22T05:42:35;98924.94;;;4.79;92.99
35489;BME280;21602;55.670;37.578;2023-03-22T05:45:13;98916.81;;;4.81;92.46
35489;BME280;21602;55.670;37.578;2023-03-22T05:47:41;98927.78;;;4.78;91.80
35489;BME280;21602;55.670;37.578;2023-03-22T05:50:21;98940.03;;;4.66;91.22
35489;BME280;21602;55.670;37.578;2023-03-22T05:52:48;98933.50;;;4.35;92.19
35489;BME280;21602;55.670;37.578;2023-03-22T05:55:24;98939.00;;;4.33;92.51
35489;BME280;21602;55.670;37.578;2023-03-22T05:57:55;98937.97;;;4.41;92.18
35489;BME280;21602;55.670;37.578;2023-03-22T06:00:22;98946.53;;;4.50;92.08
35489;BME280;21602;55.670;37.578;2023-03-22T06:03:08;98951.63;;;4.51;91.87
35489;BME280;21602;55.670;37.578;2023-03-22T06:05:39;98961.97;;;4.46;91.60
35489;BME280;21602;55.670;37.578;2023-03-22T06:08:06;98968.06;;;4.40;91.16
35489;BME280;21602;55.670;37.578;2023-03-22T06:10:32;98963.41;;;4.42;91.58
35489;BME280;21602;55.670;37.578;2023-03-22T06:12:57;98968.28;;;4.45;91.56
35489;BME280;21602;55.670;37.578;2023-03-22T06:15:27;98965.03;;;4.50;91.50
35489;BME280;21602;55.670;37.578;2023-03-22T06:18:05;98971.53;;;4.41;91.00
35489;BME280;21602;55.670;37.578;2023-03-22T06:20:37;98963.81;;;4.39;90.89
35489;BME280;21602;55.670;37.578;2023-03-22T06:23:09;98976.44;;;4.37;90.51
35489;BME280;21602;55.670;37.578;2023-03-22T06:25:38;98978.22;;;4.36;90.55
35489;BME280;21602;55.670;37.578;2023-03-22T06:28:05;98974.81;;;4.43;90.44
35489;BME280;21602;55.670;37.578;2023-03-22T06:30:31;98979.06;;;4.50;90.11
35489;BME280;21602;55.670;37.578;2023-03-22T06:33:15;98981.09;;;4.48;89.13
35489;BME280;21602;55.670;37.578;2023-03-22T06:35:45;98977.44;;;4.43;89.02
35489;BME280;21602;55.670;37.578;2023-03-22T06:38:16;98992.28;;;4.50;89.20
35489;BME280;21602;55.670;37.578;2023-03-22T06:40:47;98980.28;;;4.48;87.90
35489;BME280;21602;55.670;37.578;2023-03-22T06:43:13;98983.94;;;4.53;87.85
35489;BME280;21602;55.670;37.578;2023-03-22T06:45:45;98985.38;;;4.56;86.89
35489;BME280;21602;55.670;37.578;2023-03-22T06:48:13;98975.59;;;4.70;86.74
35489;BME280;21602;55.670;37.578;2023-03-22T06:51:02;98978.03;;;4.78;85.68
35489;BME280;21602;55.670;37.578;2023-03-22T06:53:32;98985.97;;;4.91;84.86
35489;BME280;21602;55.670;37.578;2023-03-22T06:55:58;98979.44;;;5.00;84.56
35489;BME280;21602;55.670;37.578;2023-03-22T06:58:24;98980.66;;;4.91;82.64
35489;BME280;21602;55.670;37.578;2023-03-22T07:00:50;98984.72;;;5.00;83.53
35489;BME280;21602;55.670;37.578;2023-03-22T07:03:19;98983.69;;;5.08;81.53
35489;BME280;21602;55.670;37.578;2023-03-22T07:05:51;98990.81;;;5.07;81.10
35489;BME280;21602;55.670;37.578;2023-03-22T07:08:21;98984.31;;;5.10;82.09
35489;BME280;21602;55.670;37.578;2023-03-22T07:10:49;98983.47;;;5.03;81.60
35489;BME280;21602;55.670;37.578;2023-03-22T07:13:19;98977.38;;;5.02;81.79
35489;BME280;21602;55.670;37.578;2023-03-22T07:15:55;98977.38;;;5.09;81.59
35489;BME280;21602;55.670;37.578;2023-03-22T07:18:38;98986.50;;;5.20;81.64
35489;BME280;21602;55.670;37.578;2023-03-22T07:21:04;98978.97;;;5.17;81.22
35489;BME280;21602;55.670;37.578;2023-03-22T07:23:31;98978.56;;;5.26;81.50
35489;BME280;21602;55.670;37.578;2023-03-22T07:26:03;98982.59;;;5.42;80.67
35489;BME280;21602;55.670;37.578;2023-03-22T07:28:32;98993.50;;;5.59;80.77
35489;BME280;21602;55.670;37.578;2023-03-22T07:31:07;98999.97;;;5.76;80.00
35489;BME280;21602;55.670;37.578;2023-03-22T07:33:59;99008.66;;;5.97;79.29
35489;BME280;21602;55.670;37.578;2023-03-22T07:36:33;99013.66;;;6.18;78.71
35489;BME280;21602;55.670;37.578;2023-03-22T07:39:00;99019.22;;;6.41;77.52
35489;BME280;21602;55.670;37.578;2023-03-22T07:41:30;99012.72;;;6.62;76.93
35489;BME280;21602;55.670;37.578;2023-03-22T07:44:17;99019.63;;;6.70;76.07
35489;BME280;21602;55.670;37.578;2023-03-22T07:46:50;99009.34;;;6.74;75.06
35489;BME280;21602;55.670;37.578;2023-03-22T07:49:29;99013.38;;;6.83;75.71
35489;BME280;21602;55.670;37.578;2023-03-22T07:52:15;99013.88;;;6.98;74.77
35489;BME280;21602;55.670;37.578;2023-03-22T07:54:41;99017.84;;;7.07;73.87
35489;BME280;21602;55.670;37.578;2023-03-22T07:57:08;99025.59;;;7.09;72.30
35489;BME280;21602;55.670;37.578;2023-03-22T07:59:39;99012.28;;;6.90;73.15
35489;BME280;21602;55.670;37.578;2023-03-22T08:02:06;99019.13;;;6.80;72.86
35489;BME280;21602;55.670;37.578;2023-03-22T08:04:40;99028.97;;;6.73;73.55
35489;BME280;21602;55.670;37.578;2023-03-22T08:07:14;99023.66;;;6.73;73.55
35489;BME280;21602;55.670;37.578;2023-03-22T08:09:40;99021.78;;;6.80;73.57
35489;BME280;21602;55.670;37.578;2023-03-22T08:12:08;99021.88;;;6.91;73.57
35489;BME280;21602;55.670;37.578;2023-03-22T08:14:35;99028.69;;;7.06;73.27
35489;BME280;21602;55.670;37.578;2023-03-22T08:17:04;99022.44;;;7.18;72.49
35489;BME280;21602;55.670;37.578;2023-03-22T08:19:31;99031.16;;;7.26;72.25
35489;BME280;21602;55.670;37.578;2023-03-22T08:21:58;99033.59;;;7.27;71.54
35489;BME280;21602;55.670;37.578;2023-03-22T08:24:59;99018.41;;;7.34;71.21
35489;BME280;21602;55.670;37.578;2023-03-22T08:27:29;99023.66;;;7.41;71.41
35489;BME280;21602;55.670;37.578;2023-03-22T08:29:57;99027.84;;;7.49;70.59
35489;BME280;21602;55.670;37.578;2023-03-22T08:32:23;99030.06;;;7.52;70.73
35489;BME280;21602;55.670;37.578;2023-03-22T08:34:50;99029.59;;;7.55;70.03
35489;BME280;21602;55.670;37.578;2023-03-22T08:37:17;99036.47;;;7.62;69.99
35489;BME280;21602;55.670;37.578;2023-03-22T08:39:46;99042.59;;;7.63;68.97
35489;BME280;21602;55.670;37.578;2023-03-22T08:42:19;99038.09;;;7.63;68.67
35489;BME280;21602;55.670;37.578;2023-03-22T08:44:46;99034.34;;;7.71;68.52
35489;BME280;21602;55.670;37.578;2023-03-22T08:47:13;99037.28;;;7.81;67.42
35489;BME280;21602;55.670;37.578;2023-03-22T08:49:40;99030.59;;;7.79;66.40
35489;BME280;21602;55.670;37.578;2023-03-22T08:52:15;99041.03;;;7.74;66.79
35489;BME280;21602;55.670;37.578;2023-03-22T08:54:50;99031.53;;;7.66;66.41
35489;BME280;21602;55.670;37.578;2023-03-22T08:57:37;99035.91;;;7.79;66.34
35489;BME280;21602;55.670;37.578;2023-03-22T09:00:29;99033.88;;;7.92;65.49
35489;BME280;21602;55.670;37.578;2023-03-22T09:03:04;99041.78;;;7.99;65.20
35489;BME280;21602;55.670;37.578;2023-03-22T09:05:30;99036.91;;;7.96;65.45
35489;BME280;21602;55.670;37.578;2023-03-22T09:07:57;99034.78;;;7.86;65.10
35489;BME280;21602;55.670;37.578;2023-03-22T09:10:37;99035.44;;;7.82;65.39
35489;BME280;21602;55.670;37.578;2023-03-22T09:13:04;99036.34;;;7.76;65.26
35489;BME280;21602;55.670;37.578;2023-03-22T09:15:33;99034.19;;;7.84;65.58
35489;BME280;21602;55.670;37.578;2023-03-22T09:18:15;99042.88;;;7.91;65.64
35489;BME280;21602;55.670;37.578;2023-03-22T09:20:43;99036.91;;;7.78;64.55
35489;BME280;21602;55.670;37.578;2023-03-22T09:23:11;99042.69;;;7.75;65.38
35489;BME280;21602;55.670;37.578;2023-03-22T09:25:38;99043.34;;;7.70;65.82
35489;BME280;21602;55.670;37.578;2023-03-22T09:28:08;99044.59;;;7.67;65.52
35489;BME280;21602;55.670;37.578;2023-03-22T09:30:35;99045.88;;;7.65;65.74
35489;BME280;21602;55.670;37.578;2023-03-22T09:33:02;99047.09;;;7.62;65.85
35489;BME280;21602;55.670;37.578;2023-03-22T09:35:29;99049.69;;;7.51;65.91
35489;BME280;21602;55.670;37.578;2023-03-22T09:38:02;99056.25;;;7.48;66.30
35489;BME280;21602;55.670;37.578;2023-03-22T09:40:32;99050.72;;;7.50;66.02
35489;BME280;21602;55.670;37.578;2023-03-22T09:43:02;99052.94;;;7.53;65.89
35489;BME280;21602;55.670;37.578;2023-03-22T09:45:39;99056.25;;;7.48;65.84
35489;BME280;21602;55.670;37.578;2023-03-22T09:48:15;99062.59;;;7.47;65.94
35489;BME280;21602;55.670;37.578;2023-03-22T09:50:48;99061.72;;;7.53;66.03
35489;BME280;21602;55.670;37.578;2023-03-22T09:53:16;99057.59;;;7.57;65.75
35489;BME280;21602;55.670;37.578;2023-03-22T09:55:51;99061.50;;;7.73;65.67
35489;BME280;21602;55.670;37.578;2023-03-22T10:01:54;99055.78;;;7.88;65.19
35489;BME280;21602;55.670;37.578;2023-03-22T10:04:54;99059.81;;;7.79;65.03
35489;BME280;21602;55.670;37.578;2023-03-22T10:07:24;99061.34;;;7.86;65.07
35489;BME280;21602;55.670;37.578;2023-03-22T10:10:02;99052.00;;;7.84;64.85
35489;BME280;21602;55.670;37.578;2023-03-22T10:12:41;99056.69;;;7.82;64.82
35489;BME280;21602;55.670;37.578;2023-03-22T10:15:53;99050.66;;;7.75;64.90
35489;BME280;21602;55.670;37.578;2023-03-22T10:18:22;99058.50;;;7.69;64.43
35489;BME280;21602;55.670;37.578;2023-03-22T10:20:58;99049.25;;;7.72;64.45
35489;BME280;21602;55.670;37.578;2023-03-22T10:23:40;99041.84;;;7.92;64.27
35489;BME280;21602;55.670;37.578;2023-03-22T10:28:53;99046.78;;;8.07;63.75
35489;BME280;21602;55.670;37.578;2023-03-22T10:31:24;99049.44;;;8.07;63.60
35489;BME280;21602;55.670;37.578;2023-03-22T10:36:23;99046.13;;;8.12;63.07
35489;BME280;21602;55.670;37.578;2023-03-22T10:38:55;99046.06;;;8.30;62.33
35489;BME280;21602;55.670;37.578;2023-03-22T10:41:24;99049.50;;;8.49;61.62
35489;BME280;21602;55.670;37.578;2023-03-22T10:43:53;99052.69;;;8.69;61.63
35489;BME280;21602;55.670;37.578;2023-03-22T10:46:23;99049.47;;;8.91;61.54
35489;BME280;21602;55.670;37.578;2023-03-22T10:48:52;99052.47;;;8.83;60.59
35489;BME280;21602;55.670;37.578;2023-03-22T10:51:34;99045.53;;;8.82;60.54
35489;BME280;21602;55.670;37.578;2023-03-22T10:54:00;99052.56;;;8.76;61.01
35489;BME280;21602;55.670;37.578;2023-03-22T10:56:27;99046.81;;;8.79;60.96
35489;BME280;21602;55.670;37.578;2023-03-22T10:58:54;99043.44;;;8.72;60.89
35489;BME280;21602;55.670;37.578;2023-03-22T11:01:48;99045.59;;;8.52;60.76
35489;BME280;21602;55.670;37.578;2023-03-22T11:04:16;99051.16;;;8.32;61.23
35489;BME280;21602;55.670;37.578;2023-03-22T11:06:52;99048.03;;;8.35;61.21
35489;BME280;21602;55.670;37.578;2023-03-22T11:09:22;99045.84;;;8.32;61.10
35489;BME280;21602;55.670;37.578;2023-03-22T11:11:52;99045.34;;;8.23;61.67
35489;BME280;21602;55.670;37.578;2023-03-22T11:14:35;99050.97;;;8.15;62.11
35489;BME280;21602;55.670;37.578;2023-03-22T11:19:31;99054.28;;;8.10;62.58
35489;BME280;21602;55.670;37.578;2023-03-22T11:21:58;99047.50;;;8.14;62.54
35489;BME280;21602;55.670;37.578;2023-03-22T11:24:26;99055.47;;;8.14;62.64
35489;BME280;21602;55.670;37.578;2023-03-22T11:27:22;99050.84;;;8.10;62.89
35489;BME280;21602;55.670;37.578;2023-03-22T11:29:56;99046.34;;;7.92;63.34
35489;BME280;21602;55.670;37.578;2023-03-22T11:37:31;99047.09;;;7.62;65.31
35489;BME280;21602;55.670;37.578;2023-03-22T11:40:00;99051.19;;;7.65;65.94
35489;BME280;21602;55.670;37.578;2023-03-22T11:42:32;99050.19;;;7.78;65.90
35489;BME280;21602;55.670;37.578;2023-03-22T11:44:59;99048.16;;;7.80;66.00
35489;BME280;21602;55.670;37.578;2023-03-22T11:47:26;99045.16;;;7.88;66.09
35489;BME280;21602;55.670;37.578;2023-03-22T11:50:04;99049.09;;;7.85;66.51
35489;BME280;21602;55.670;37.578;2023-03-22T11:52:33;99053.00;;;7.83;66.38
35489;BME280;21602;55.670;37.578;2023-03-22T11:55:00;99053.22;;;7.81;66.42
35489;BME280;21602;55.670;37.578;2023-03-22T11:57:29;99054.72;;;7.77;66.70
35489;BME280;21602;55.670;37.578;2023-03-22T11:59:57;99044.97;;;7.71;67.14
35489;BME280;21602;55.670;37.578;2023-03-22T12:02:31;99049.25;;;7.72;67.01
35489;BME280;21602;55.670;37.578;2023-03-22T12:05:11;99039.56;;;7.78;67.11
35489;BME280;21602;55.670;37.578;2023-03-22T12:07:40;99047.63;;;7.89;67.20
35489;BME280;21602;55.670;37.578;2023-03-22T12:10:17;99036.31;;;7.94;67.02
35489;BME280;21602;55.670;37.578;2023-03-22T12:12:53;99039.56;;;7.96;67.37
35489;BME280;21602;55.670;37.578;2023-03-22T12:15:28;99033.69;;;8.06;66.88
35489;BME280;21602;55.670;37.578;2023-03-22T12:18:16;99038.97;;;8.24;66.31
35489;BME280;21602;55.670;37.578;2023-03-22T12:20:54;99037.88;;;8.32;65.74
35489;BME280;21602;55.670;37.578;2023-03-22T12:23:25;99036.38;;;8.36;65.82
35489;BME280;21602;55.670;37.578;2023-03-22T12:28:28;99040.44;;;8.38;65.18
35489;BME280;21602;55.670;37.578;2023-03-22T12:30:58;99032.72;;;8.37;65.13
35489;BME280;21602;55.670;37.578;2023-03-22T12:33:25;99033.00;;;8.29;65.02
35489;BME280;21602;55.670;37.578;2023-03-22T12:35:57;99027.53;;;8.24;64.92
35489;BME280;21602;55.670;37.578;2023-03-22T12:38:49;99032.59;;;8.13;65.21
35489;BME280;21602;55.670;37.578;2023-03-22T12:41:32;99025.16;;;8.04;65.62
35489;BME280;21602;55.670;37.578;2023-03-22T12:44:27;99024.88;;;7.93;65.86
35489;BME280;21602;55.670;37.578;2023-03-22T12:47:36;99029.69;;;7.85;66.53
35489;BME280;21602;55.670;37.578;2023-03-22T12:53:00;99025.75;;;7.87;66.71
35489;BME280;21602;55.670;37.578;2023-03-22T12:55:38;99027.59;;;7.87;66.81
35489;BME280;21602;55.670;37.578;2023-03-22T12:58:09;99025.09;;;7.92;66.74
35489;BME280;21602;55.670;37.578;2023-03-22T13:00:53;99022.25;;;8.05;66.72
35489;BME280;21602;55.670;37.578;2023-03-22T13:03:37;99022.34;;;8.29;66.35
35489;BME280;21602;55.670;37.578;2023-03-22T13:06:27;99015.53;;;8.33;66.21
35489;BME280;21602;55.670;37.578;2023-03-22T13:09:13;99011.44;;;8.37;65.79
35489;BME280;21602;55.670;37.578;2023-03-22T13:11:48;99011.69;;;8.47;65.50
35489;BME280;21602;55.670;37.578;2023-03-22T13:15:02;99005.44;;;8.53;65.07
35489;BME280;21602;55.670;37.578;2023-03-22T13:17:43;99005.19;;;8.43;65.37
35489;BME280;21602;55.670;37.578;2023-03-22T13:27:58;99012.88;;;8.33;65.26
35489;BME280;21602;55.670;37.578;2023-03-22T13:38:42;99011.22;;;8.20;64.87
35489;BME280;21602;55.670;37.578;2023-03-22T13:41:31;99007.63;;;8.14;64.69
35489;BME280;21602;55.670;37.578;2023-03-22T13:44:29;98997.91;;;8.08;64.62
35489;BME280;21602;55.670;37.578;2023-03-22T13:47:00;98996.47;;;8.06;64.13
35489;BME280;21602;55.670;37.578;2023-03-22T13:49:47;99005.19;;;8.13;63.77
35489;BME280;21602;55.670;37.578;2023-03-22T13:52:50;98996.75;;;8.16;63.93
35489;BME280;21602;55.670;37.578;2023-03-22T14:01:41;98997.78;;;8.15;62.25
35489;BME280;21602;55.670;37.578;2023-03-22T14:09:41;98989.91;;;8.08;61.83
35489;BME280;21602;55.670;37.578;2023-03-22T14:12:57;98987.56;;;8.00;61.63
35489;BME280;21602;55.670;37.578;2023-03-22T14:19:21;98993.38;;;7.79;61.38
35489;BME280;21602;55.670;37.578;2023-03-22T14:26:06;98984.38;;;7.80;61.56
35489;BME280;21602;55.670;37.578;2023-03-22T14:28:39;98988.78;;;7.86;61.62
35489;BME280;21602;55.670;37.578;2023-03-22T14:34:19;98976.97;;;7.82;61.31
35489;BME280;21602;55.670;37.578;2023-03-22T14:36:46;98976.97;;;7.82;60.28
35489;BME280;21602;55.670;37.578;2023-03-22T14:39:21;98978.16;;;7.86;60.59
35489;BME280;21602;55.670;37.578;2023-03-22T14:44:40;98976.94;;;8.00;60.31
35489;BME280;21602;55.670;37.578;2023-03-22T14:49:41;98972.97;;;7.91;60.22
35489;BME280;21602;55.670;37.578;2023-03-22T14:52:24;98982.50;;;7.99;59.84
35489;BME280;21602;55.670;37.578;2023-03-22T14:55:00;98974.28;;;8.00;59.96
35489;BME280;21602;55.670;37.578;2023-03-22T14:57:28;98975.44;;;8.04;59.94
35489;BME280;21602;55.670;37.578;2023-03-22T14:59:58;98978.34;;;8.03;59.85
35489;BME280;21602;55.670;37.578;2023-03-22T15:02:34;98987.00;;;7.98;59.93
35489;BME280;21602;55.670;37.578;2023-03-22T15:05:32;98980.28;;;7.95;59.81
35489;BME280;21602;55.670;37.578;2023-03-22T15:08:06;98976.22;;;7.93;60.07
35489;BME280;21602;55.670;37.578;2023-03-22T15:10:33;98977.34;;;7.85;60.01
35489;BME280;21602;55.670;37.578;2023-03-22T15:13:01;98970.03;;;7.81;60.15
35489;BME280;21602;55.670;37.578;2023-03-22T15:15:43;98975.34;;;7.81;60.23
35489;BME280;21602;55.670;37.578;2023-03-22T15:18:13;98972.31;;;7.77;60.56
35489;BME280;21602;55.670;37.578;2023-03-22T15:20:43;98968.28;;;7.75;60.42